Pagina principală
METAR-TAF:

METAR-TAF

Aeroporturi :

Colby, Kansas, Statele Unite ale Americii

Latitudine: 39-25-39N, longitudine: 101-02-48W, elevație: 971 m

Observații meteo curente

Raportul a fost făcut în urmă cu 26 de minute, la 14:35 UTC
Vânt 19 kt de la Sud
Temperatură 23°C
Umiditate 65%
Presiune 1012 hPa
Vizibilitate: 16.1 km
Cer senin

METAR: KCBK 151435Z AUTO 19019KT 10SM CLR 23/16 A2987 RMK AO2 T02260159

Ora: 10:01 (15:01 UTC)


TAF: lipsă

Observații și prognoze meteo pentru peste 4.000 de aeroporturi (rapoarte METAR și TAF).

Stațiile disponibile sunt reprezentate pe hartă prin puncte galbene și roșii.

Țineți indicatorul mouse-ului pe punctul dorit pentru a vedea denumirea stației.

Apoi, faceți clic pentru a vedea observațiile și prognozele meteorologice.

Pentru a schimba harta: Pentru mărire, faceți clic pe butoanele verzi cu cruce neagră; pentru micșorare, pe butonul verde cu o liniuță; pentru hărți învecinate, pe săgețile verzi.


METAR-TAF: